sensor_id;sensor_type;location;lat;lon;timestamp;temperature;humidity
75451;DHT22;64029;48.244;9.188;2023-03-01T00:01:00;-3.40;70.70
75451;DHT22;64029;48.244;9.188;2023-03-01T00:03:27;-3.40;70.40
75451;DHT22;64029;48.244;9.188;2023-03-01T00:05:54;-3.40;70.60
75451;DHT22;64029;48.244;9.188;2023-03-01T00:08:22;-3.40;70.90
75451;DHT22;64029;48.244;9.188;2023-03-01T00:10:48;-3.40;70.90
75451;DHT22;64029;48.244;9.188;2023-03-01T00:13:15;-3.40;71.20
75451;DHT22;64029;48.244;9.188;2023-03-01T00:15:43;-3.40;71.20
75451;DHT22;64029;48.244;9.188;2023-03-01T00:18:10;-3.40;71.20
75451;DHT22;64029;48.244;9.188;2023-03-01T00:20:37;-3.40;71.30
75451;DHT22;64029;48.244;9.188;2023-03-01T00:23:03;-3.30;71.30
75451;DHT22;64029;48.244;9.188;2023-03-01T00:25:31;-3.30;71.20
75451;DHT22;64029;48.244;9.188;2023-03-01T00:27:58;-3.30;71.60
75451;DHT22;64029;48.244;9.188;2023-03-01T00:30:25;-3.30;71.30
75451;DHT22;64029;48.244;9.188;2023-03-01T00:32:52;-3.30;71.40
75451;DHT22;64029;48.244;9.188;2023-03-01T00:35:19;-3.30;71.80
75451;DHT22;64029;48.244;9.188;2023-03-01T00:37:45;-3.30;72.10
75451;DHT22;64029;48.244;9.188;2023-03-01T00:40:13;-3.20;72.10
75451;DHT22;64029;48.244;9.188;2023-03-01T00:42:43;-3.20;71.80
75451;DHT22;64029;48.244;9.188;2023-03-01T00:45:10;-3.20;71.80
75451;DHT22;64029;48.244;9.188;2023-03-01T00:47:38;-3.20;72.20
75451;DHT22;64029;48.244;9.188;2023-03-01T00:50:06;-3.20;71.90
75451;DHT22;64029;48.244;9.188;2023-03-01T00:52:33;-3.20;72.20
75451;DHT22;64029;48.244;9.188;2023-03-01T00:55:00;-3.20;72.10
75451;DHT22;64029;48.244;9.188;2023-03-01T00:57:26;-3.20;72.30
75451;DHT22;64029;48.244;9.188;2023-03-01T00:59:55;-3.10;72.40
75451;DHT22;64029;48.244;9.188;2023-03-01T01:02:22;-3.10;72.30
75451;DHT22;64029;48.244;9.188;2023-03-01T01:04:49;-3.10;72.20
75451;DHT22;64029;48.244;9.188;2023-03-01T01:07:17;-3.10;72.40
75451;DHT22;64029;48.244;9.188;2023-03-01T01:09:45;-3.10;72.80
75451;DHT22;64029;48.244;9.188;2023-03-01T01:12:12;-3.10;72.70
75451;DHT22;64029;48.244;9.188;2023-03-01T01:14:39;-3.10;72.80
75451;DHT22;64029;48.244;9.188;2023-03-01T01:17:09;-3.00;72.90
75451;DHT22;64029;48.244;9.188;2023-03-01T01:19:36;-3.00;72.90
75451;DHT22;64029;48.244;9.188;2023-03-01T01:22:03;-3.00;72.60
75451;DHT22;64029;48.244;9.188;2023-03-01T01:24:30;-3.00;72.60
75451;DHT22;64029;48.244;9.188;2023-03-01T01:26:56;-3.00;72.40
75451;DHT22;64029;48.244;9.188;2023-03-01T01:29:23;-3.00;73.00
75451;DHT22;64029;48.244;9.188;2023-03-01T01:31:50;-3.00;72.70
75451;DHT22;64029;48.244;9.188;2023-03-01T01:34:20;-2.90;73.10
75451;DHT22;64029;48.244;9.188;2023-03-01T01:36:48;-2.90;73.10
75451;DHT22;64029;48.244;9.188;2023-03-01T01:39:15;-2.90;72.80
75451;DHT22;64029;48.244;9.188;2023-03-01T01:41:42;-2.90;72.90
75451;DHT22;64029;48.244;9.188;2023-03-01T01:44:15;-2.80;73.20
75451;DHT22;64029;48.244;9.188;2023-03-01T01:46:45;-2.80;73.30
75451;DHT22;64029;48.244;9.188;2023-03-01T01:49:21;-2.80;73.00
75451;DHT22;64029;48.244;9.188;2023-03-01T01:51:53;-2.80;73.20
75451;DHT22;64029;48.244;9.188;2023-03-01T01:54:25;-2.80;73.00
75451;DHT22;64029;48.244;9.188;2023-03-01T01:56:55;-2.80;73.70
75451;DHT22;64029;48.244;9.188;2023-03-01T01:59:25;-2.80;73.10
75451;DHT22;64029;48.244;9.188;2023-03-01T02:01:54;-2.70;73.70
75451;DHT22;64029;48.244;9.188;2023-03-01T02:04:23;-2.70;74.80
75451;DHT22;64029;48.244;9.188;2023-03-01T02:06:53;-2.60;74.80
75451;DHT22;64029;48.244;9.188;2023-03-01T02:09:23;-2.60;75.20
75451;DHT22;64029;48.244;9.188;2023-03-01T02:11:51;-2.50;74.70
75451;DHT22;64029;48.244;9.188;2023-03-01T02:14:18;-2.50;74.10
75451;DHT22;64029;48.244;9.188;2023-03-01T02:16:45;-2.40;74.30
75451;DHT22;64029;48.244;9.188;2023-03-01T02:19:23;-2.40;74.20
75451;DHT22;64029;48.244;9.188;2023-03-01T02:21:57;-2.40;74.30
75451;DHT22;64029;48.244;9.188;2023-03-01T02:24:31;-2.40;75.70
75451;DHT22;64029;48.244;9.188;2023-03-01T02:27:00;-2.30;75.10
75451;DHT22;64029;48.244;9.188;2023-03-01T02:29:29;-2.30;74.70
75451;DHT22;64029;48.244;9.188;2023-03-01T02:31:58;-2.30;74.80
75451;DHT22;64029;48.244;9.188;2023-03-01T02:34:27;-2.30;74.90
75451;DHT22;64029;48.244;9.188;2023-03-01T02:36:57;-2.20;74.80
75451;DHT22;64029;48.244;9.188;2023-03-01T02:39:27;-2.20;74.70
75451;DHT22;64029;48.244;9.188;2023-03-01T02:41:56;-2.20;74.40
75451;DHT22;64029;48.244;9.188;2023-03-01T02:44:24;-2.20;74.60
75451;DHT22;64029;48.244;9.188;2023-03-01T02:46:55;-2.10;74.40
75451;DHT22;64029;48.244;9.188;2023-03-01T02:49:24;-2.10;74.50
75451;DHT22;64029;48.244;9.188;2023-03-01T02:52:22;-2.10;74.50
75451;DHT22;64029;48.244;9.188;2023-03-01T02:54:57;-2.10;74.50
75451;DHT22;64029;48.244;9.188;2023-03-01T02:57:25;-2.10;75.00
75451;DHT22;64029;48.244;9.188;2023-03-01T02:59:54;-2.00;75.50
75451;DHT22;64029;48.244;9.188;2023-03-01T03:02:24;-2.00;74.90
75451;DHT22;64029;48.244;9.188;2023-03-01T03:05:06;-2.00;74.80
75451;DHT22;64029;48.244;9.188;2023-03-01T03:07:34;-2.00;75.20
75451;DHT22;64029;48.244;9.188;2023-03-01T03:10:01;-2.00;74.90
75451;DHT22;64029;48.244;9.188;2023-03-01T03:12:28;-1.90;75.10
75451;DHT22;64029;48.244;9.188;2023-03-01T03:14:55;-1.90;75.20
75451;DHT22;64029;48.244;9.188;2023-03-01T03:17:24;-1.90;75.10
75451;DHT22;64029;48.244;9.188;2023-03-01T03:19:51;-1.90;75.40
75451;DHT22;64029;48.244;9.188;2023-03-01T03:22:17;-1.80;75.40
75451;DHT22;64029;48.244;9.188;2023-03-01T03:24:44;-1.80;76.00
75451;DHT22;64029;48.244;9.188;2023-03-01T03:27:11;-1.80;75.60
75451;DHT22;64029;48.244;9.188;2023-03-01T03:29:38;-1.80;76.40
75451;DHT22;64029;48.244;9.188;2023-03-01T03:32:05;-1.80;75.40
75451;DHT22;64029;48.244;9.188;2023-03-01T03:34:33;-1.80;75.30
75451;DHT22;64029;48.244;9.188;2023-03-01T03:37:00;-1.70;75.50
75451;DHT22;64029;48.244;9.188;2023-03-01T03:39:28;-1.70;75.90
75451;DHT22;64029;48.244;9.188;2023-03-01T03:42:00;-1.70;76.00
75451;DHT22;64029;48.244;9.188;2023-03-01T03:44:27;-1.70;75.50
75451;DHT22;64029;48.244;9.188;2023-03-01T03:46:54;-1.60;76.40
75451;DHT22;64029;48.244;9.188;2023-03-01T03:49:20;-1.60;75.50
75451;DHT22;64029;48.244;9.188;2023-03-01T03:51:49;-1.60;76.10
75451;DHT22;64029;48.244;9.188;2023-03-01T03:54:15;-1.60;75.60
75451;DHT22;64029;48.244;9.188;2023-03-01T03:56:42;-1.60;75.60
75451;DHT22;64029;48.244;9.188;2023-03-01T03:59:09;-1.60;75.50
75451;DHT22;64029;48.244;9.188;2023-03-01T04:01:36;-1.60;75.50
75451;DHT22;64029;48.244;9.188;2023-03-01T04:04:03;-1.60;75.50
75451;DHT22;64029;48.244;9.188;2023-03-01T04:06:33;-1.60;75.60
75451;DHT22;64029;48.244;9.188;2023-03-01T04:09:01;-1.50;75.90
75451;DHT22;64029;48.244;9.188;2023-03-01T04:11:28;-1.50;75.80
75451;DHT22;64029;48.244;9.188;2023-03-01T04:13:57;-1.50;75.70
75451;DHT22;64029;48.244;9.188;2023-03-01T04:16:25;-1.40;75.90
75451;DHT22;64029;48.244;9.188;2023-03-01T04:18:52;-1.40;75.70
75451;DHT22;64029;48.244;9.188;2023-03-01T04:21:20;-1.50;75.40
75451;DHT22;64029;48.244;9.188;2023-03-01T04:23:47;-1.50;75.40
75451;DHT22;64029;48.244;9.188;2023-03-01T04:26:19;-1.50;76.10
75451;DHT22;64029;48.244;9.188;2023-03-01T04:28:46;-1.50;75.50
75451;DHT22;64029;48.244;9.188;2023-03-01T04:31:16;-1.40;75.70
75451;DHT22;64029;48.244;9.188;2023-03-01T04:33:45;-1.40;75.60
75451;DHT22;64029;48.244;9.188;2023-03-01T04:36:13;-1.40;75.70
75451;DHT22;64029;48.244;9.188;2023-03-01T04:38:40;-1.30;76.00
75451;DHT22;64029;48.244;9.188;2023-03-01T04:41:09;-1.30;75.70
75451;DHT22;64029;48.244;9.188;2023-03-01T04:43:38;-1.30;75.70
75451;DHT22;64029;48.244;9.188;2023-03-01T04:46:06;-1.30;76.30
75451;DHT22;64029;48.244;9.188;2023-03-01T04:48:34;-1.30;76.60
75451;DHT22;64029;48.244;9.188;2023-03-01T04:51:02;-1.30;75.70
75451;DHT22;64029;48.244;9.188;2023-03-01T04:53:29;-1.30;75.80
75451;DHT22;64029;48.244;9.188;2023-03-01T04:55:56;-1.30;75.60
75451;DHT22;64029;48.244;9.188;2023-03-01T04:58:24;-1.30;75.70
75451;DHT22;64029;48.244;9.188;2023-03-01T05:00:53;-1.30;75.60
75451;DHT22;64029;48.244;9.188;2023-03-01T05:03:20;-1.30;75.60
75451;DHT22;64029;48.244;9.188;2023-03-01T05:05:49;-1.30;75.60
75451;DHT22;64029;48.244;9.188;2023-03-01T05:08:17;-1.30;75.50
75451;DHT22;64029;48.244;9.188;2023-03-01T05:10:45;-1.30;75.60
75451;DHT22;64029;48.244;9.188;2023-03-01T05:13:13;-1.30;75.60
75451;DHT22;64029;48.244;9.188;2023-03-01T05:15:46;-1.30;75.70
75451;DHT22;64029;48.244;9.188;2023-03-01T05:18:15;-1.20;75.80
75451;DHT22;64029;48.244;9.188;2023-03-01T05:20:42;-1.20;75.80
75451;DHT22;64029;48.244;9.188;2023-03-01T05:23:10;-1.20;75.70
75451;DHT22;64029;48.244;9.188;2023-03-01T05:25:37;-1.20;75.70
75451;DHT22;64029;48.244;9.188;2023-03-01T05:28:06;-1.20;75.70
75451;DHT22;64029;48.244;9.188;2023-03-01T05:30:34;-1.20;75.90
75451;DHT22;64029;48.244;9.188;2023-03-01T05:33:01;-1.20;76.10
75451;DHT22;64029;48.244;9.188;2023-03-01T05:35:29;-1.10;76.10
75451;DHT22;64029;48.244;9.188;2023-03-01T05:37:59;-1.10;75.80
75451;DHT22;64029;48.244;9.188;2023-03-01T05:40:25;-1.10;75.90
75451;DHT22;64029;48.244;9.188;2023-03-01T05:42:54;-1.10;75.80
75451;DHT22;64029;48.244;9.188;2023-03-01T05:45:23;-1.10;76.00
75451;DHT22;64029;48.244;9.188;2023-03-01T05:47:50;-1.10;75.80
75451;DHT22;64029;48.244;9.188;2023-03-01T05:50:19;-1.10;75.90
75451;DHT22;64029;48.244;9.188;2023-03-01T05:52:49;-1.10;76.00
75451;DHT22;64029;48.244;9.188;2023-03-01T05:55:16;-1.10;75.80
75451;DHT22;64029;48.244;9.188;2023-03-01T05:57:43;-1.10;75.90
75451;DHT22;64029;48.244;9.188;2023-03-01T06:00:11;-1.00;76.10
75451;DHT22;64029;48.244;9.188;2023-03-01T06:02:38;-0.90;76.10
75451;DHT22;64029;48.244;9.188;2023-03-01T06:05:07;-1.00;75.80
75451;DHT22;64029;48.244;9.188;2023-03-01T06:07:34;-1.00;76.20
75451;DHT22;64029;48.244;9.188;2023-03-01T06:10:03;-1.00;76.20
75451;DHT22;64029;48.244;9.188;2023-03-01T06:12:31;-1.00;76.10
75451;DHT22;64029;48.244;9.188;2023-03-01T06:14:58;-1.00;75.90
75451;DHT22;64029;48.244;9.188;2023-03-01T06:17:25;-0.90;76.10
75451;DHT22;64029;48.244;9.188;2023-03-01T06:19:52;-0.90;76.00
75451;DHT22;64029;48.244;9.188;2023-03-01T06:22:19;-0.90;76.00
75451;DHT22;64029;48.244;9.188;2023-03-01T06:24:45;-1.00;75.90
75451;DHT22;64029;48.244;9.188;2023-03-01T06:27:13;-1.00;76.00
75451;DHT22;64029;48.244;9.188;2023-03-01T06:29:40;-0.90;76.10
75451;DHT22;64029;48.244;9.188;2023-03-01T06:32:07;-0.90;76.10
75451;DHT22;64029;48.244;9.188;2023-03-01T06:34:34;-0.90;76.00
75451;DHT22;64029;48.244;9.188;2023-03-01T06:37:01;-0.90;76.10
75451;DHT22;64029;48.244;9.188;2023-03-01T06:39:30;-0.90;76.30
75451;DHT22;64029;48.244;9.188;2023-03-01T06:41:57;-0.90;76.50
75451;DHT22;64029;48.244;9.188;2023-03-01T06:44:25;-0.90;76.10
75451;DHT22;64029;48.244;9.188;2023-03-01T06:46:52;-0.90;76.10
75451;DHT22;64029;48.244;9.188;2023-03-01T06:49:19;-0.90;76.00
75451;DHT22;64029;48.244;9.188;2023-03-01T06:51:46;-0.90;75.90
75451;DHT22;64029;48.244;9.188;2023-03-01T06:54:13;-0.90;75.90
75451;DHT22;64029;48.244;9.188;2023-03-01T06:56:40;-0.90;76.00
75451;DHT22;64029;48.244;9.188;2023-03-01T06:59:07;-0.80;76.10
75451;DHT22;64029;48.244;9.188;2023-03-01T07:01:35;-0.80;76.00
75451;DHT22;64029;48.244;9.188;2023-03-01T07:04:02;-0.80;76.00
75451;DHT22;64029;48.244;9.188;2023-03-01T07:06:29;-0.80;76.00
75451;DHT22;64029;48.244;9.188;2023-03-01T07:08:56;-0.80;76.00
75451;DHT22;64029;48.244;9.188;2023-03-01T07:11:23;-0.80;76.00
75451;DHT22;64029;48.244;9.188;2023-03-01T07:13:50;-0.80;76.10
75451;DHT22;64029;48.244;9.188;2023-03-01T07:16:17;-0.80;76.00
75451;DHT22;64029;48.244;9.188;2023-03-01T07:18:47;-0.70;77.00
75451;DHT22;64029;48.244;9.188;2023-03-01T07:21:14;-0.70;76.10
75451;DHT22;64029;48.244;9.188;2023-03-01T07:23:42;-0.70;76.00
75451;DHT22;64029;48.244;9.188;2023-03-01T07:26:09;-0.70;76.00
75451;DHT22;64029;48.244;9.188;2023-03-01T07:28:35;-0.70;76.10
75451;DHT22;64029;48.244;9.188;2023-03-01T07:31:05;-0.70;76.00
75451;DHT22;64029;48.244;9.188;2023-03-01T07:33:32;-0.70;76.10
75451;DHT22;64029;48.244;9.188;2023-03-01T07:36:03;-0.70;76.00
75451;DHT22;64029;48.244;9.188;2023-03-01T07:38:30;-0.70;76.10
75451;DHT22;64029;48.244;9.188;2023-03-01T07:40:58;-0.70;76.10
75451;DHT22;64029;48.244;9.188;2023-03-01T07:43:25;-0.70;76.10
75451;DHT22;64029;48.244;9.188;2023-03-01T07:45:52;-0.70;76.00
75451;DHT22;64029;48.244;9.188;2023-03-01T07:48:19;-0.60;76.00
75451;DHT22;64029;48.244;9.188;2023-03-01T07:50:46;-0.60;76.00
75451;DHT22;64029;48.244;9.188;2023-03-01T07:53:14;-0.60;76.10
75451;DHT22;64029;48.244;9.188;2023-03-01T07:55:41;-0.60;76.00
75451;DHT22;64029;48.244;9.188;2023-03-01T07:58:08;-0.60;76.00
75451;DHT22;64029;48.244;9.188;2023-03-01T08:00:34;-0.60;76.00
75451;DHT22;64029;48.244;9.188;2023-03-01T08:03:02;-0.60;76.00
75451;DHT22;64029;48.244;9.188;2023-03-01T08:05:29;-0.60;76.00
75451;DHT22;64029;48.244;9.188;2023-03-01T08:07:56;-0.60;75.90
75451;DHT22;64029;48.244;9.188;2023-03-01T08:10:24;-0.60;76.00
75451;DHT22;64029;48.244;9.188;2023-03-01T08:12:51;-0.50;76.00
75451;DHT22;64029;48.244;9.188;2023-03-01T08:15:19;-0.50;76.00
75451;DHT22;64029;48.244;9.188;2023-03-01T08:17:48;-0.50;75.90
75451;DHT22;64029;48.244;9.188;2023-03-01T08:20:15;-0.50;75.90
75451;DHT22;64029;48.244;9.188;2023-03-01T08:22:42;-0.50;75.90
75451;DHT22;64029;48.244;9.188;2023-03-01T08:25:09;-0.50;75.90
75451;DHT22;64029;48.244;9.188;2023-03-01T08:27:37;-0.40;76.00
75451;DHT22;64029;48.244;9.188;2023-03-01T08:30:06;-0.40;76.00
75451;DHT22;64029;48.244;9.188;2023-03-01T08:32:35;-0.40;76.00
75451;DHT22;64029;48.244;9.188;2023-03-01T08:35:03;-0.40;76.00
75451;DHT22;64029;48.244;9.188;2023-03-01T08:37:30;-0.40;75.90
75451;DHT22;64029;48.244;9.188;2023-03-01T08:39:58;-0.40;75.90
75451;DHT22;64029;48.244;9.188;2023-03-01T08:42:25;-0.30;75.90
75451;DHT22;64029;48.244;9.188;2023-03-01T08:44:53;-0.30;76.00
75451;DHT22;64029;48.244;9.188;2023-03-01T08:47:20;-0.30;75.90
75451;DHT22;64029;48.244;9.188;2023-03-01T08:49:48;-0.30;76.70
75451;DHT22;64029;48.244;9.188;2023-03-01T08:52:15;-0.20;76.00
75451;DHT22;64029;48.244;9.188;2023-03-01T08:54:42;-0.20;76.00
75451;DHT22;64029;48.244;9.188;2023-03-01T08:57:09;-0.20;76.00
75451;DHT22;64029;48.244;9.188;2023-03-01T08:59:35;-0.20;75.90
75451;DHT22;64029;48.244;9.188;2023-03-01T09:02:04;-0.10;76.00
75451;DHT22;64029;48.244;9.188;2023-03-01T09:04:31;-0.10;75.90
75451;DHT22;64029;48.244;9.188;2023-03-01T09:06:58;-0.10;76.50
75451;DHT22;64029;48.244;9.188;2023-03-01T09:09:25;-0.10;75.90
75451;DHT22;64029;48.244;9.188;2023-03-01T09:11:52;0.00;76.00
75451;DHT22;64029;48.244;9.188;2023-03-01T09:14:19;0.00;76.00
75451;DHT22;64029;48.244;9.188;2023-03-01T09:16:46;0.00;75.90
75451;DHT22;64029;48.244;9.188;2023-03-01T09:19:14;0.10;76.00
75451;DHT22;64029;48.244;9.188;2023-03-01T09:21:41;0.10;75.80
75451;DHT22;64029;48.244;9.188;2023-03-01T09:24:19;0.10;75.80
75451;DHT22;64029;48.244;9.188;2023-03-01T09:26:46;0.10;75.80
75451;DHT22;64029;48.244;9.188;2023-03-01T09:29:13;0.10;75.30
75451;DHT22;64029;48.244;9.188;2023-03-01T09:31:41;0.20;75.70
75451;DHT22;64029;48.244;9.188;2023-03-01T09:34:08;0.20;75.60
75451;DHT22;64029;48.244;9.188;2023-03-01T09:36:37;0.20;75.70
75451;DHT22;64029;48.244;9.188;2023-03-01T09:39:04;0.20;75.50
75451;DHT22;64029;48.244;9.188;2023-03-01T09:41:44;0.20;75.50
75451;DHT22;64029;48.244;9.188;2023-03-01T09:44:19;0.30;75.40
75451;DHT22;64029;48.244;9.188;2023-03-01T09:46:47;0.30;75.70
75451;DHT22;64029;48.244;9.188;2023-03-01T09:49:16;0.30;75.60
75451;DHT22;64029;48.244;9.188;2023-03-01T09:51:54;0.40;75.80
75451;DHT22;64029;48.244;9.188;2023-03-01T09:54:22;0.40;75.70
75451;DHT22;64029;48.244;9.188;2023-03-01T09:56:59;0.40;75.00
75451;DHT22;64029;48.244;9.188;2023-03-01T09:59:31;0.40;75.50
75451;DHT22;64029;48.244;9.188;2023-03-01T10:02:11;0.50;75.40
75451;DHT22;64029;48.244;9.188;2023-03-01T10:04:45;0.50;75.40
75451;DHT22;64029;48.244;9.188;2023-03-01T10:07:27;0.60;75.80
75451;DHT22;64029;48.244;9.188;2023-03-01T10:09:55;0.60;75.70
75451;DHT22;64029;48.244;9.188;2023-03-01T10:12:26;0.60;75.60
75451;DHT22;64029;48.244;9.188;2023-03-01T10:14:59;0.60;75.40
75451;DHT22;64029;48.244;9.188;2023-03-01T10:17:32;0.70;75.60
75451;DHT22;64029;48.244;9.188;2023-03-01T10:20:17;0.80;75.60
75451;DHT22;64029;48.244;9.188;2023-03-01T10:22:45;0.80;75.60
75451;DHT22;64029;48.244;9.188;2023-03-01T10:25:20;0.80;75.50
75451;DHT22;64029;48.244;9.188;2023-03-01T10:27:52;0.80;75.30
75451;DHT22;64029;48.244;9.188;2023-03-01T10:30:22;0.90;75.70
75451;DHT22;64029;48.244;9.188;2023-03-01T10:32:54;0.90;75.00
75451;DHT22;64029;48.244;9.188;2023-03-01T10:35:22;0.90;75.20
75451;DHT22;64029;48.244;9.188;2023-03-01T10:38:05;1.00;75.40
75451;DHT22;64029;48.244;9.188;2023-03-01T10:40:32;1.00;75.60
75451;DHT22;64029;48.244;9.188;2023-03-01T10:43:01;1.10;75.50
75451;DHT22;64029;48.244;9.188;2023-03-01T10:45:34;1.10;75.40
75451;DHT22;64029;48.244;9.188;2023-03-01T10:48:08;1.10;75.60
75451;DHT22;64029;48.244;9.188;2023-03-01T10:50:38;1.20;75.60
75451;DHT22;64029;48.244;9.188;2023-03-01T10:53:21;1.20;75.10
75451;DHT22;64029;48.244;9.188;2023-03-01T10:55:57;1.20;74.90
75451;DHT22;64029;48.244;9.188;2023-03-01T10:58:24;1.30;75.30
75451;DHT22;64029;48.244;9.188;2023-03-01T11:00:53;1.30;75.40
75451;DHT22;64029;48.244;9.188;2023-03-01T11:03:23;1.40;75.30
75451;DHT22;64029;48.244;9.188;2023-03-01T11:05:56;1.30;74.90
75451;DHT22;64029;48.244;9.188;2023-03-01T11:08:37;1.30;74.50
75451;DHT22;64029;48.244;9.188;2023-03-01T11:11:07;1.40;75.10
75451;DHT22;64029;48.244;9.188;2023-03-01T11:13:52;1.40;74.80
75451;DHT22;64029;48.244;9.188;2023-03-01T11:16:28;1.40;74.70
75451;DHT22;64029;48.244;9.188;2023-03-01T11:18:57;1.50;74.90
75451;DHT22;64029;48.244;9.188;2023-03-01T11:21:25;1.50;74.70
75451;DHT22;64029;48.244;9.188;2023-03-01T11:23:55;1.60;74.70
75451;DHT22;64029;48.244;9.188;2023-03-01T11:26:23;1.60;74.50
75451;DHT22;64029;48.244;9.188;2023-03-01T11:28:55;1.60;74.10
75451;DHT22;64029;48.244;9.188;2023-03-01T11:31:24;1.50;73.10
75451;DHT22;64029;48.244;9.188;2023-03-01T11:33:55;1.60;74.10
75451;DHT22;64029;48.244;9.188;2023-03-01T11:36:29;1.60;74.50
75451;DHT22;64029;48.244;9.188;2023-03-01T11:39:03;1.70;74.30
75451;DHT22;64029;48.244;9.188;2023-03-01T11:41:32;1.70;74.10
75451;DHT22;64029;48.244;9.188;2023-03-01T11:44:05;1.70;74.20
75451;DHT22;64029;48.244;9.188;2023-03-01T11:46:50;1.80;73.90
75451;DHT22;64029;48.244;9.188;2023-03-01T11:52:41;1.70;73.60
75451;DHT22;64029;48.244;9.188;2023-03-01T11:55:28;1.80;74.10
75451;DHT22;64029;48.244;9.188;2023-03-01T11:58:14;1.90;73.60
75451;DHT22;64029;48.244;9.188;2023-03-01T12:00:57;1.90;73.20
75451;DHT22;64029;48.244;9.188;2023-03-01T12:03:37;1.90;73.30
75451;DHT22;64029;48.244;9.188;2023-03-01T12:06:24;1.90;73.20
75451;DHT22;64029;48.244;9.188;2023-03-01T12:09:04;1.90;73.70
75451;DHT22;64029;48.244;9.188;2023-03-01T12:11:48;2.00;73.60
75451;DHT22;64029;48.244;9.188;2023-03-01T12:14:32;2.00;73.70
75451;DHT22;64029;48.244;9.188;2023-03-01T12:17:11;2.00;73.40
75451;DHT22;64029;48.244;9.188;2023-03-01T12:19:56;2.00;73.20
75451;DHT22;64029;48.244;9.188;2023-03-01T12:22:34;2.00;73.20
75451;DHT22;64029;48.244;9.188;2023-03-01T12:25:18;2.00;73.50
75451;DHT22;64029;48.244;9.188;2023-03-01T12:27:59;2.10;73.60
75451;DHT22;64029;48.244;9.188;2023-03-01T12:30:39;2.00;72.90
75451;DHT22;64029;48.244;9.188;2023-03-01T12:33:19;2.00;72.90
75451;DHT22;64029;48.244;9.188;2023-03-01T12:36:12;2.00;73.20
75451;DHT22;64029;48.244;9.188;2023-03-01T12:38:42;2.10;73.70
75451;DHT22;64029;48.244;9.188;2023-03-01T12:41:21;2.10;74.60
75451;DHT22;64029;48.244;9.188;2023-03-01T12:44:00;2.10;73.70
75451;DHT22;64029;48.244;9.188;2023-03-01T12:46:39;2.20;74.10
75451;DHT22;64029;48.244;9.188;2023-03-01T12:49:14;2.10;72.70
75451;DHT22;64029;48.244;9.188;2023-03-01T12:51:46;2.10;73.40
75451;DHT22;64029;48.244;9.188;2023-03-01T12:54:24;2.20;73.90
75451;DHT22;64029;48.244;9.188;2023-03-01T12:56:52;2.20;73.70
75451;DHT22;64029;48.244;9.188;2023-03-01T12:59:25;2.20;73.00
75451;DHT22;64029;48.244;9.188;2023-03-01T13:02:00;2.20;72.30
75451;DHT22;64029;48.244;9.188;2023-03-01T13:04:37;2.30;73.00
75451;DHT22;64029;48.244;9.188;2023-03-01T13:07:16;2.30;72.10
75451;DHT22;64029;48.244;9.188;2023-03-01T13:09:50;2.30;72.90
75451;DHT22;64029;48.244;9.188;2023-03-01T13:12:51;2.30;73.10
75451;DHT22;64029;48.244;9.188;2023-03-01T13:15:28;2.30;72.00
75451;DHT22;64029;48.244;9.188;2023-03-01T13:17:57;2.40;73.20
75451;DHT22;64029;48.244;9.188;2023-03-01T13:20:27;2.40;72.80
75451;DHT22;64029;48.244;9.188;2023-03-01T13:23:05;2.50;73.60
75451;DHT22;64029;48.244;9.188;2023-03-01T13:25:33;2.50;72.60
75451;DHT22;64029;48.244;9.188;2023-03-01T13:31:03;2.50;73.80
75451;DHT22;64029;48.244;9.188;2023-03-01T13:33:40;2.60;74.20
75451;DHT22;64029;48.244;9.188;2023-03-01T13:36:08;2.60;73.40
75451;DHT22;64029;48.244;9.188;2023-03-01T13:38:45;2.60;73.90
75451;DHT22;64029;48.244;9.188;2023-03-01T13:41:13;2.70;72.30
75451;DHT22;64029;48.244;9.188;2023-03-01T13:43:41;2.70;73.30
75451;DHT22;64029;48.244;9.188;2023-03-01T13:46:16;2.70;73.70
75451;DHT22;64029;48.244;9.188;2023-03-01T13:48:45;2.70;74.10
75451;DHT22;64029;48.244;9.188;2023-03-01T13:51:14;2.70;74.00
75451;DHT22;64029;48.244;9.188;2023-03-01T13:53:44;2.80;73.80
75451;DHT22;64029;48.244;9.188;2023-03-01T13:56:15;2.80;73.30
75451;DHT22;64029;48.244;9.188;2023-03-01T13:58:48;2.90;74.00
75451;DHT22;64029;48.244;9.188;2023-03-01T14:01:24;2.90;74.20
75451;DHT22;64029;48.244;9.188;2023-03-01T14:03:51;2.90;72.60
75451;DHT22;64029;48.244;9.188;2023-03-01T14:06:21;2.90;73.80
75451;DHT22;64029;48.244;9.188;2023-03-01T14:08:50;3.00;73.10
75451;DHT22;64029;48.244;9.188;2023-03-01T14:11:31;3.10;73.30
75451;DHT22;64029;48.244;9.188;2023-03-01T14:14:29;3.10;73.70
75451;DHT22;64029;48.244;9.188;2023-03-01T14:17:08;3.10;73.70
75451;DHT22;64029;48.244;9.188;2023-03-01T14:19:37;3.20;73.80
75451;DHT22;64029;48.244;9.188;2023-03-01T14:22:21;3.20;73.80
75451;DHT22;64029;48.244;9.188;2023-03-01T14:24:51;3.20;72.60
75451;DHT22;64029;48.244;9.188;2023-03-01T14:27:18;3.20;73.30
75451;DHT22;64029;48.244;9.188;2023-03-01T14:29:55;3.20;73.60
75451;DHT22;64029;48.244;9.188;2023-03-01T14:32:25;3.30;73.40
75451;DHT22;64029;48.244;9.188;2023-03-01T14:34:52;3.30;73.50
75451;DHT22;64029;48.244;9.188;2023-03-01T14:37:22;3.30;74.00
75451;DHT22;64029;48.244;9.188;2023-03-01T14:39:49;3.30;73.80
75451;DHT22;64029;48.244;9.188;2023-03-01T14:42:16;3.40;74.00
75451;DHT22;64029;48.244;9.188;2023-03-01T14:44:47;3.40;73.90
75451;DHT22;64029;48.244;9.188;2023-03-01T14:47:25;3.40;72.80
75451;DHT22;64029;48.244;9.188;2023-03-01T14:49:57;3.40;72.80
75451;DHT22;64029;48.244;9.188;2023-03-01T14:52:30;3.40;73.80
75451;DHT22;64029;48.244;9.188;2023-03-01T14:54:59;3.50;74.10
75451;DHT22;64029;48.244;9.188;2023-03-01T14:57:28;3.50;71.40
75451;DHT22;64029;48.244;9.188;2023-03-01T14:59:58;3.50;73.10
75451;DHT22;64029;48.244;9.188;2023-03-01T15:02:27;3.50;73.20
75451;DHT22;64029;48.244;9.188;2023-03-01T15:04:59;3.50;73.40
75451;DHT22;64029;48.244;9.188;2023-03-01T15:07:30;3.50;73.60
75451;DHT22;64029;48.244;9.188;2023-03-01T15:09:58;3.50;73.40
75451;DHT22;64029;48.244;9.188;2023-03-01T15:12:37;3.50;73.20
75451;DHT22;64029;48.244;9.188;2023-03-01T15:15:34;3.50;73.50
75451;DHT22;64029;48.244;9.188;2023-03-01T15:18:04;3.50;73.80
75451;DHT22;64029;48.244;9.188;2023-03-01T15:20:34;3.50;73.70
75451;DHT22;64029;48.244;9.188;2023-03-01T15:23:03;3.50;72.90
75451;DHT22;64029;48.244;9.188;2023-03-01T15:25:31;3.50;73.10
75451;DHT22;64029;48.244;9.188;2023-03-01T15:28:00;3.50;73.00
75451;DHT22;64029;48.244;9.188;2023-03-01T15:30:30;3.50;73.30
75451;DHT22;64029;48.244;9.188;2023-03-01T15:33:20;3.50;72.60
75451;DHT22;64029;48.244;9.188;2023-03-01T15:35:50;3.50;73.10
75451;DHT22;64029;48.244;9.188;2023-03-01T15:38:33;3.50;73.20
75451;DHT22;64029;48.244;9.188;2023-03-01T15:41:06;3.50;73.20
75451;DHT22;64029;48.244;9.188;2023-03-01T15:43:48;3.50;73.50
75451;DHT22;64029;48.244;9.188;2023-03-01T15:46:25;3.40;72.80
75451;DHT22;64029;48.244;9.188;2023-03-01T15:48:54;3.40;73.50
75451;DHT22;64029;48.244;9.188;2023-03-01T15:51:32;3.40;73.00
75451;DHT22;64029;48.244;9.188;2023-03-01T15:54:05;3.40;72.80
75451;DHT22;64029;48.244;9.188;2023-03-01T15:56:32;3.40;73.00
75451;DHT22;64029;48.244;9.188;2023-03-01T15:59:01;3.30;71.70
75451;DHT22;64029;48.244;9.188;2023-03-01T16:01:29;3.30;71.70
75451;DHT22;64029;48.244;9.188;2023-03-01T16:03:56;3.30;72.60